createdAt,value
2018-03-31T00:01:07.354Z,3.00
2018-03-31T00:03:34.507Z,3.20
2018-03-31T00:06:01.607Z,3.40
2018-03-31T00:08:29.510Z,3.70
2018-03-31T00:10:56.395Z,3.70
2018-03-31T00:13:23.495Z,3.90
2018-03-31T00:15:51.138Z,4.00
2018-03-31T00:18:18.228Z,4.00
2018-03-31T00:20:45.326Z,4.00
2018-03-31T00:23:12.419Z,3.90
2018-03-31T00:25:40.279Z,3.80
2018-03-31T00:28:07.162Z,3.80
2018-03-31T00:30:34.254Z,3.60
2018-03-31T00:33:01.355Z,3.40
2018-03-31T00:35:28.871Z,3.40
2018-03-31T00:37:55.974Z,3.30
2018-03-31T00:40:23.311Z,3.20
2018-03-31T00:42:51.172Z,3.10
2018-03-31T00:45:18.287Z,3.10
2018-03-31T00:47:45.395Z,3.10
2018-03-31T00:50:13.277Z,3.00
2018-03-31T00:52:41.140Z,2.90
2018-03-31T00:55:09.011Z,2.80
2018-03-31T00:57:36.135Z,2.80
2018-03-31T01:00:03.503Z,2.80
2018-03-31T01:02:30.852Z,2.70
2018-03-31T01:04:57.976Z,2.60
2018-03-31T01:07:25.074Z,2.60
2018-03-31T01:09:52.179Z,2.60
2018-03-31T01:12:19.284Z,2.60
2018-03-31T01:14:46.391Z,2.50
2018-03-31T01:17:13.505Z,2.50
2018-03-31T01:19:40.611Z,2.50
2018-03-31T01:22:07.946Z,2.50
2018-03-31T01:24:35.051Z,2.50
2018-03-31T01:27:02.550Z,2.50
2018-03-31T01:29:29.645Z,2.50
2018-03-31T01:31:56.765Z,2.50
2018-03-31T01:34:23.867Z,2.60
2018-03-31T01:36:50.986Z,2.50
2018-03-31T01:39:18.098Z,2.60
2018-03-31T01:41:45.967Z,2.60
2018-03-31T01:44:13.070Z,2.60
2018-03-31T01:46:40.185Z,2.60
2018-03-31T01:49:08.282Z,2.60
2018-03-31T01:51:35.403Z,2.60
2018-03-31T01:54:02.511Z,2.60
2018-03-31T01:56:29.663Z,2.60
2018-03-31T01:58:56.786Z,2.60
2018-03-31T02:01:23.892Z,2.60
2018-03-31T02:03:51.001Z,2.60
2018-03-31T02:06:18.103Z,2.60
2018-03-31T02:08:45.195Z,2.60
2018-03-31T02:11:13.059Z,2.60
2018-03-31T02:13:41.165Z,2.60
2018-03-31T02:16:08.269Z,2.60
2018-03-31T02:18:35.374Z,2.70
2018-03-31T02:21:02.485Z,2.70
2018-03-31T02:23:29.587Z,2.80
2018-03-31T02:25:56.720Z,2.90
2018-03-31T02:28:23.824Z,2.90
2018-03-31T02:30:51.280Z,2.90
2018-03-31T02:33:18.166Z,2.90
2018-03-31T02:35:46.472Z,2.90
2018-03-31T02:38:13.802Z,2.90
2018-03-31T02:40:40.927Z,2.90
2018-03-31T02:43:08.083Z,2.90
2018-03-31T02:45:35.183Z,2.80
2018-03-31T02:48:03.052Z,2.80
2018-03-31T02:50:30.928Z,2.70
2018-03-31T02:52:58.039Z,2.70
2018-03-31T02:55:25.160Z,2.70
2018-03-31T02:57:52.262Z,2.70
2018-03-31T03:00:19.427Z,2.70
2018-03-31T03:02:47.303Z,2.60
2018-03-31T03:05:15.167Z,2.60
2018-03-31T03:07:43.031Z,2.50
2018-03-31T03:10:10.126Z,2.50
2018-03-31T03:12:37.222Z,2.50
2018-03-31T03:15:04.334Z,2.50
2018-03-31T03:17:31.659Z,2.50
2018-03-31T03:19:59.023Z,2.50
2018-03-31T03:22:26.939Z,2.40
2018-03-31T03:24:54.104Z,2.40
2018-03-31T03:27:21.779Z,2.40
2018-03-31T03:29:48.890Z,2.50
2018-03-31T03:32:16.220Z,2.40
2018-03-31T03:34:43.327Z,2.40
2018-03-31T03:37:10.444Z,2.40
2018-03-31T03:39:38.539Z,2.40
2018-03-31T03:42:05.939Z,2.40
2018-03-31T03:44:33.275Z,2.40
2018-03-31T03:47:00.375Z,2.40
2018-03-31T03:49:27.490Z,2.40
2018-03-31T03:51:54.820Z,2.40
2018-03-31T03:54:21.922Z,2.40
2018-03-31T03:56:49.027Z,2.30
2018-03-31T03:59:16.135Z,2.30
2018-03-31T04:01:43.282Z,2.30
2018-03-31T04:04:10.367Z,2.30
2018-03-31T04:06:37.475Z,2.30
2018-03-31T04:09:04.578Z,2.30
2018-03-31T04:11:32.463Z,2.30
2018-03-31T04:13:59.591Z,2.30
2018-03-31T04:16:26.752Z,2.30
2018-03-31T04:18:54.179Z,2.30
2018-03-31T04:21:21.590Z,2.20
2018-03-31T04:23:48.703Z,2.30
2018-03-31T04:26:15.811Z,2.30
2018-03-31T04:28:42.908Z,2.20
2018-03-31T04:31:10.017Z,2.10
2018-03-31T04:33:37.119Z,2.10
2018-03-31T04:36:04.214Z,2.10
2018-03-31T04:38:32.082Z,2.10
2018-03-31T04:40:59.989Z,2.10
2018-03-31T04:43:27.093Z,2.10
2018-03-31T04:45:54.966Z,2.10
2018-03-31T04:48:22.852Z,2.10
2018-03-31T04:50:50.202Z,2.10
2018-03-31T04:53:18.339Z,2.10
2018-03-31T04:55:45.439Z,2.10
2018-03-31T04:58:13.366Z,2.10
2018-03-31T05:00:40.450Z,2.10
2018-03-31T05:03:07.844Z,2.10
2018-03-31T05:05:35.210Z,2.10
2018-03-31T05:08:02.348Z,2.10
2018-03-31T05:10:29.507Z,2.10
2018-03-31T05:13:06.544Z,2.10
2018-03-31T05:15:33.643Z,2.10
2018-03-31T05:18:00.744Z,2.10
2018-03-31T05:20:27.860Z,2.20
2018-03-31T05:22:54.962Z,2.20
2018-03-31T05:25:22.068Z,2.20
2018-03-31T05:27:49.560Z,2.20
2018-03-31T05:30:16.682Z,2.30
2018-03-31T05:32:44.063Z,2.20
2018-03-31T05:35:11.172Z,2.20
2018-03-31T05:37:38.810Z,2.20
2018-03-31T05:40:06.149Z,2.30
2018-03-31T05:42:35.417Z,2.30
2018-03-31T05:45:12.447Z,2.30
2018-03-31T05:47:39.563Z,2.30
2018-03-31T05:50:06.920Z,2.40
2018-03-31T05:52:34.023Z,2.50
2018-03-31T05:55:01.131Z,2.60
2018-03-31T05:57:28.239Z,2.60
2018-03-31T05:59:55.343Z,2.70
2018-03-31T06:02:22.451Z,2.80
2018-03-31T06:05:00.260Z,3.00
2018-03-31T06:07:28.867Z,3.10
2018-03-31T06:09:55.980Z,3.00
2018-03-31T06:12:23.082Z,3.10
2018-03-31T06:14:51.459Z,3.10
2018-03-31T06:17:18.599Z,3.20
2018-03-31T06:19:45.733Z,3.20
2018-03-31T06:22:13.604Z,3.30
2018-03-31T06:24:41.482Z,3.40
2018-03-31T06:27:10.339Z,3.50
2018-03-31T06:29:37.979Z,3.50
2018-03-31T06:32:06.074Z,3.60
2018-03-31T06:34:33.170Z,3.50
2018-03-31T06:37:00.272Z,3.60
2018-03-31T06:39:28.139Z,3.70
2018-03-31T06:41:55.244Z,3.60
2018-03-31T06:44:23.406Z,3.60
2018-03-31T06:46:50.516Z,3.60
2018-03-31T06:49:17.617Z,3.70
2018-03-31T06:51:44.719Z,3.70
2018-03-31T06:54:11.827Z,3.80
2018-03-31T06:56:38.944Z,3.90
2018-03-31T06:59:06.055Z,4.00
2018-03-31T07:01:33.923Z,4.20
2018-03-31T07:04:01.023Z,4.20
2018-03-31T07:06:28.128Z,4.30
2018-03-31T07:08:55.991Z,4.60
2018-03-31T07:11:23.899Z,4.70
2018-03-31T07:13:50.999Z,4.70
2018-03-31T07:16:18.098Z,4.80
2018-03-31T07:18:45.194Z,4.90
2018-03-31T07:21:13.821Z,5.10
2018-03-31T07:23:40.918Z,5.10
2018-03-31T07:26:08.006Z,5.20
2018-03-31T07:28:35.107Z,5.20
2018-03-31T07:31:02.203Z,5.30
2018-03-31T07:33:29.300Z,5.20
2018-03-31T07:35:57.163Z,5.40
2018-03-31T07:38:25.074Z,5.50
2018-03-31T07:40:52.176Z,5.50
2018-03-31T07:43:19.315Z,5.70
2018-03-31T07:45:46.429Z,5.70
2018-03-31T07:48:13.528Z,5.80
2018-03-31T07:50:40.665Z,5.80
2018-03-31T07:53:07.755Z,5.90
2018-03-31T07:55:34.859Z,5.90
2018-03-31T07:58:02.006Z,5.80
2018-03-31T08:00:29.112Z,5.80
2018-03-31T08:02:56.232Z,5.80
2018-03-31T08:05:23.332Z,5.70
2018-03-31T08:07:51.206Z,5.60
2018-03-31T08:10:18.309Z,5.50
2018-03-31T08:12:45.414Z,5.50
2018-03-31T08:15:13.288Z,5.50
2018-03-31T08:17:40.386Z,5.50
2018-03-31T08:20:07.493Z,5.60
2018-03-31T08:22:34.603Z,5.70
2018-03-31T08:25:01.713Z,5.70
2018-03-31T08:27:28.815Z,5.80
2018-03-31T08:29:55.946Z,5.80
2018-03-31T08:32:23.039Z,5.90
2018-03-31T08:34:50.140Z,6.00
2018-03-31T08:37:17.242Z,6.00
2018-03-31T08:39:44.356Z,6.10
2018-03-31T08:42:11.468Z,6.10
2018-03-31T08:44:38.603Z,6.20
2018-03-31T08:47:05.709Z,6.30
2018-03-31T08:49:32.867Z,6.50
2018-03-31T08:51:59.958Z,6.60
2018-03-31T08:54:27.111Z,6.70
2018-03-31T08:56:54.228Z,6.90
2018-03-31T08:59:21.324Z,6.90
2018-03-31T09:01:48.433Z,7.00
2018-03-31T09:04:15.531Z,7.00
2018-03-31T09:06:42.640Z,7.20
2018-03-31T09:09:09.809Z,7.30
2018-03-31T09:11:36.917Z,7.40
2018-03-31T09:14:04.011Z,7.50
2018-03-31T09:16:31.115Z,7.60
2018-03-31T09:18:58.220Z,7.70
2018-03-31T09:21:25.370Z,7.90
2018-03-31T09:23:52.454Z,8.20
2018-03-31T09:26:19.558Z,8.30
2018-03-31T09:28:46.687Z,8.30
2018-03-31T09:31:14.551Z,8.70
2018-03-31T09:33:41.651Z,8.70
2018-03-31T09:36:09.219Z,8.80
2018-03-31T09:38:36.364Z,8.80
2018-03-31T09:41:03.459Z,8.90
2018-03-31T09:43:30.565Z,8.80
2018-03-31T09:45:57.666Z,8.70
2018-03-31T09:48:24.780Z,8.70
2018-03-31T09:50:51.891Z,8.80
2018-03-31T09:53:18.991Z,8.80
2018-03-31T09:55:46.107Z,9.00
2018-03-31T09:58:13.977Z,9.10
2018-03-31T10:00:41.898Z,9.00
2018-03-31T10:03:08.995Z,9.00
2018-03-31T10:05:36.104Z,8.80
2018-03-31T10:08:03.196Z,8.70
2018-03-31T10:10:30.344Z,8.60
2018-03-31T10:12:58.370Z,8.50
2018-03-31T10:15:25.488Z,8.40
2018-03-31T10:17:52.786Z,8.40
2018-03-31T10:20:20.691Z,8.20
2018-03-31T10:22:47.787Z,8.10
2018-03-31T10:25:16.554Z,8.20
2018-03-31T10:27:43.732Z,8.10
2018-03-31T10:30:11.602Z,8.10
2018-03-31T10:32:39.531Z,8.10
2018-03-31T10:35:06.632Z,8.00
2018-03-31T10:37:34.526Z,8.20
2018-03-31T10:40:01.620Z,8.20
2018-03-31T10:42:28.723Z,8.30
2018-03-31T10:44:55.827Z,8.50
2018-03-31T10:47:23.018Z,8.80
2018-03-31T10:49:50.079Z,9.30
2018-03-31T10:52:17.947Z,9.70
2018-03-31T10:54:45.813Z,9.70
2018-03-31T10:57:13.682Z,9.70
2018-03-31T10:59:41.550Z,9.70
2018-03-31T11:02:09.409Z,9.80
2018-03-31T11:04:36.511Z,9.80
2018-03-31T11:07:03.623Z,10.10
2018-03-31T11:09:31.499Z,10.30
2018-03-31T11:11:59.366Z,10.20
2018-03-31T11:14:27.234Z,10.20
2018-03-31T11:16:54.363Z,10.20
2018-03-31T11:19:21.266Z,10.30
2018-03-31T11:21:48.372Z,10.60
2018-03-31T11:24:15.487Z,10.70
2018-03-31T11:26:42.598Z,10.70
2018-03-31T11:29:10.491Z,10.70
2018-03-31T11:31:38.364Z,11.00
2018-03-31T11:34:06.245Z,10.80
2018-03-31T11:36:33.347Z,10.80
2018-03-31T11:39:00.451Z,10.80
2018-03-31T11:41:27.916Z,10.80
2018-03-31T11:43:55.018Z,11.00
2018-03-31T11:46:22.175Z,11.10
2018-03-31T11:48:49.068Z,11.20
2018-03-31T11:51:16.234Z,11.20
2018-03-31T11:53:43.351Z,11.20
2018-03-31T11:56:10.461Z,11.00
2018-03-31T11:58:37.609Z,11.00
2018-03-31T12:01:04.519Z,11.00
2018-03-31T12:03:32.175Z,11.00
2018-03-31T12:05:59.835Z,11.10
2018-03-31T12:08:26.718Z,11.10
2018-03-31T12:10:53.606Z,11.10
2018-03-31T12:13:20.515Z,11.20
2018-03-31T12:15:47.415Z,11.20
2018-03-31T12:18:14.312Z,11.20
2018-03-31T12:20:41.203Z,11.30
2018-03-31T12:23:08.090Z,11.30
2018-03-31T12:25:35.743Z,11.30
2018-03-31T12:28:02.641Z,11.20
2018-03-31T12:30:29.531Z,11.40
2018-03-31T12:32:56.647Z,11.40
2018-03-31T12:35:23.743Z,11.50
2018-03-31T12:37:50.845Z,11.50
2018-03-31T12:40:18.022Z,11.40
2018-03-31T12:42:44.906Z,11.20
2018-03-31T12:45:11.794Z,11.20
2018-03-31T12:47:38.678Z,11.10
2018-03-31T12:50:05.629Z,11.00
2018-03-31T12:52:32.535Z,10.90
2018-03-31T12:54:59.478Z,10.80
2018-03-31T12:57:27.146Z,10.60
2018-03-31T12:59:54.808Z,10.50
2018-03-31T13:02:22.462Z,10.40
2018-03-31T13:04:49.351Z,10.40
2018-03-31T13:07:16.459Z,10.30
2018-03-31T13:09:43.371Z,10.30
2018-03-31T13:12:10.475Z,10.30
2018-03-31T13:14:38.363Z,10.20
2018-03-31T13:17:05.481Z,10.20
2018-03-31T13:19:32.589Z,10.10
2018-03-31T13:21:59.716Z,10.10
2018-03-31T13:24:27.592Z,10.00
2018-03-31T13:26:54.707Z,9.90
2018-03-31T13:29:21.828Z,9.90
2018-03-31T13:31:48.936Z,9.80
2018-03-31T13:34:16.808Z,9.70
2018-03-31T13:36:44.708Z,9.60
2018-03-31T13:39:11.824Z,9.60
2018-03-31T13:41:38.924Z,9.60
2018-03-31T13:44:06.040Z,9.60
2018-03-31T13:46:33.174Z,9.60
2018-03-31T13:49:00.315Z,9.50
2018-03-31T13:51:28.184Z,9.40
2018-03-31T13:53:56.109Z,9.30
2018-03-31T13:56:23.979Z,9.20
2018-03-31T13:58:51.864Z,9.20
2018-03-31T14:01:18.964Z,9.20
2018-03-31T14:03:46.066Z,9.00
2018-03-31T14:06:13.168Z,9.00
2018-03-31T14:08:40.272Z,8.90
2018-03-31T14:11:07.398Z,8.80
2018-03-31T14:13:34.559Z,8.80
2018-03-31T14:16:01.687Z,8.70
2018-03-31T14:18:28.795Z,8.60
2018-03-31T14:20:55.903Z,8.60
2018-03-31T14:23:23.007Z,8.50
2018-03-31T14:25:50.193Z,8.40
2018-03-31T14:28:17.300Z,8.30
2018-03-31T14:30:45.167Z,8.10
2018-03-31T14:33:13.031Z,8.00
2018-03-31T14:35:41.040Z,8.00
2018-03-31T14:38:08.164Z,8.00
2018-03-31T14:40:36.032Z,7.90
2018-03-31T14:43:03.902Z,7.80
2018-03-31T14:45:30.998Z,7.70
2018-03-31T14:47:58.101Z,7.70
2018-03-31T14:50:25.210Z,7.70
2018-03-31T14:52:52.352Z,7.70
2018-03-31T14:55:19.463Z,7.70
2018-03-31T14:57:46.564Z,7.60
2018-03-31T15:00:13.699Z,7.50
2018-03-31T15:02:40.818Z,7.50
2018-03-31T15:05:07.924Z,7.40
2018-03-31T15:07:35.024Z,7.30
2018-03-31T15:10:02.124Z,7.20
2018-03-31T15:12:29.228Z,7.10
2018-03-31T15:14:56.337Z,7.10
2018-03-31T15:17:23.491Z,7.00
2018-03-31T15:19:50.619Z,6.90
2018-03-31T15:22:18.488Z,6.80
2018-03-31T15:24:46.350Z,6.80
2018-03-31T15:27:14.214Z,6.70
2018-03-31T15:29:41.327Z,6.70
2018-03-31T15:32:08.428Z,6.70
2018-03-31T15:34:36.290Z,6.60
2018-03-31T15:37:03.431Z,6.60
2018-03-31T15:39:30.532Z,6.60
2018-03-31T15:41:57.635Z,6.50
2018-03-31T15:44:24.745Z,6.50
2018-03-31T15:46:51.846Z,6.40
2018-03-31T15:49:18.951Z,6.40
2018-03-31T15:51:46.056Z,6.30
2018-03-31T15:54:13.164Z,6.30
2018-03-31T15:56:40.273Z,6.30
2018-03-31T15:59:07.376Z,6.30
2018-03-31T16:01:35.795Z,6.20
2018-03-31T16:04:02.909Z,6.10
2018-03-31T16:06:30.027Z,6.00
2018-03-31T16:08:57.964Z,5.90
2018-03-31T16:11:25.043Z,5.90
2018-03-31T16:13:52.224Z,5.80
2018-03-31T16:16:20.118Z,5.70
2018-03-31T16:18:47.224Z,5.70
2018-03-31T16:21:14.328Z,5.70
2018-03-31T16:23:41.461Z,5.70
2018-03-31T16:26:08.639Z,5.60
2018-03-31T16:28:36.495Z,5.60
2018-03-31T16:31:03.620Z,5.50
2018-03-31T16:33:30.720Z,5.50
2018-03-31T16:35:57.826Z,5.50
2018-03-31T16:38:24.941Z,5.50
2018-03-31T16:40:52.035Z,5.50
2018-03-31T16:43:19.170Z,5.40
2018-03-31T16:45:46.266Z,5.40
2018-03-31T16:48:13.370Z,5.40
2018-03-31T16:50:40.477Z,5.30
2018-03-31T16:53:07.598Z,5.30
2018-03-31T16:55:34.694Z,5.30
2018-03-31T16:58:01.795Z,5.30
2018-03-31T17:00:28.903Z,5.30
2018-03-31T17:02:56.768Z,5.20
2018-03-31T17:05:23.859Z,5.10
2018-03-31T17:07:50.960Z,5.10
2018-03-31T17:10:18.058Z,5.10
2018-03-31T17:12:45.159Z,5.00
2018-03-31T17:15:13.096Z,4.90
2018-03-31T17:17:40.194Z,4.90
2018-03-31T17:20:08.059Z,4.90
2018-03-31T17:22:35.922Z,4.90
2018-03-31T17:25:03.025Z,4.90
2018-03-31T17:27:30.128Z,4.90
2018-03-31T17:29:57.230Z,4.80
2018-03-31T17:32:24.375Z,4.80
2018-03-31T17:34:51.487Z,4.70
2018-03-31T17:37:18.587Z,4.60
2018-03-31T17:39:46.454Z,4.60
2018-03-31T17:42:13.575Z,4.60
2018-03-31T17:44:41.439Z,4.60
2018-03-31T17:47:08.530Z,4.60
2018-03-31T17:49:35.636Z,4.60
2018-03-31T17:52:02.742Z,4.50
2018-03-31T17:54:29.842Z,4.60
2018-03-31T17:56:56.943Z,4.60
2018-03-31T17:59:24.046Z,4.50
2018-03-31T18:01:51.156Z,4.50
2018-03-31T18:04:18.265Z,4.50
2018-03-31T18:06:45.431Z,4.40
2018-03-31T18:09:13.302Z,4.40
2018-03-31T18:11:41.172Z,4.40
2018-03-31T18:14:08.275Z,4.40
2018-03-31T18:16:35.376Z,4.30
2018-03-31T18:19:02.478Z,4.30
2018-03-31T18:21:29.584Z,4.30
2018-03-31T18:23:56.695Z,4.30
2018-03-31T18:26:23.799Z,4.20
2018-03-31T18:28:50.903Z,4.20
2018-03-31T18:31:17.999Z,4.20
2018-03-31T18:33:45.907Z,4.10
2018-03-31T18:36:13.017Z,4.10
2018-03-31T18:38:40.128Z,4.10
2018-03-31T18:41:07.261Z,4.10
2018-03-31T18:43:34.391Z,4.10
2018-03-31T18:46:02.255Z,4.00
2018-03-31T18:48:29.355Z,4.00
2018-03-31T18:50:56.459Z,4.00
2018-03-31T18:53:23.563Z,4.00
2018-03-31T18:55:50.722Z,3.90
2018-03-31T18:58:17.834Z,3.90
2018-03-31T19:00:44.944Z,3.90
2018-03-31T19:03:12.070Z,4.00
2018-03-31T19:05:39.190Z,3.90
2018-03-31T19:08:06.314Z,3.90
2018-03-31T19:10:33.702Z,3.90
2018-03-31T19:13:00.806Z,3.80
2018-03-31T19:15:27.908Z,3.80
2018-03-31T19:17:55.020Z,3.80
2018-03-31T19:20:22.164Z,3.80
2018-03-31T19:22:49.275Z,3.70
2018-03-31T19:25:21.887Z,3.70
2018-03-31T19:27:49.004Z,3.70
2018-03-31T19:30:16.108Z,3.70
2018-03-31T19:32:43.223Z,3.70
2018-03-31T19:35:11.096Z,3.70
2018-03-31T19:37:39.031Z,3.60
2018-03-31T19:40:06.142Z,3.60
2018-03-31T19:42:33.255Z,3.60
2018-03-31T19:45:00.382Z,3.60
2018-03-31T19:47:27.503Z,3.60
2018-03-31T19:49:54.610Z,3.60
2018-03-31T19:52:21.715Z,3.60
2018-03-31T19:54:48.883Z,3.50
2018-03-31T19:57:16.719Z,3.50
2018-03-31T19:59:44.607Z,3.60
2018-03-31T20:02:11.702Z,3.50
2018-03-31T20:04:38.804Z,3.60
2018-03-31T20:07:05.923Z,3.60
2018-03-31T20:09:33.046Z,3.60
2018-03-31T20:12:00.147Z,3.60
2018-03-31T20:14:28.073Z,3.50
2018-03-31T20:16:55.946Z,3.40
2018-03-31T20:19:23.048Z,3.40
2018-03-31T20:21:50.946Z,3.40
2018-03-31T20:24:18.098Z,3.40
2018-03-31T20:26:45.504Z,3.40
2018-03-31T20:29:12.611Z,3.40
2018-03-31T20:31:39.739Z,3.30
2018-03-31T20:34:07.610Z,3.30
2018-03-31T20:36:34.723Z,3.30
2018-03-31T20:39:02.054Z,3.30
2018-03-31T20:41:29.155Z,3.20
2018-03-31T20:43:56.254Z,3.20
2018-03-31T20:46:23.366Z,3.20
2018-03-31T20:48:50.467Z,3.20
2018-03-31T20:51:17.611Z,3.20
2018-03-31T20:53:44.718Z,3.20
2018-03-31T20:56:11.816Z,3.10
2018-03-31T20:58:38.927Z,3.10
2018-03-31T21:01:06.028Z,3.10
2018-03-31T21:03:33.899Z,3.10
2018-03-31T21:06:01.767Z,3.10
2018-03-31T21:08:28.868Z,3.10
2018-03-31T21:10:56.753Z,3.10
2018-03-31T21:13:23.899Z,3.00
2018-03-31T21:15:51.007Z,3.00
2018-03-31T21:18:18.109Z,3.00
2018-03-31T21:20:45.268Z,3.00
2018-03-31T21:23:12.373Z,3.00
2018-03-31T21:25:39.471Z,3.00
2018-03-31T21:28:06.574Z,3.00
2018-03-31T21:30:33.687Z,3.00
2018-03-31T21:33:00.783Z,2.90
2018-03-31T21:35:27.887Z,2.90
2018-03-31T21:37:54.989Z,2.80
2018-03-31T21:40:22.088Z,2.70
2018-03-31T21:42:49.231Z,2.70
2018-03-31T21:45:16.345Z,2.60
2018-03-31T21:47:44.200Z,2.50
2018-03-31T21:50:11.300Z,2.50
2018-03-31T21:52:38.419Z,2.50
2018-03-31T21:55:05.519Z,2.40
2018-03-31T21:57:32.637Z,2.30
2018-03-31T21:59:59.739Z,2.30
2018-03-31T22:02:26.846Z,2.30
2018-03-31T22:04:53.946Z,2.20
2018-03-31T22:07:21.044Z,2.10
2018-03-31T22:09:48.751Z,1.90
2018-03-31T22:12:15.643Z,2.00
2018-03-31T22:14:48.350Z,1.90
2018-03-31T22:17:15.451Z,1.90
2018-03-31T22:19:42.552Z,1.90
2018-03-31T22:22:09.643Z,1.90
2018-03-31T22:24:36.742Z,1.80
2018-03-31T22:27:03.862Z,1.80
2018-03-31T22:29:30.954Z,1.80
2018-03-31T22:31:58.055Z,1.90
2018-03-31T22:34:25.159Z,1.80
2018-03-31T22:36:53.046Z,1.90
2018-03-31T22:39:20.908Z,1.80
2018-03-31T22:41:48.011Z,1.80
2018-03-31T22:44:15.099Z,1.80
2018-03-31T22:46:42.210Z,1.70
2018-03-31T22:49:09.307Z,1.70
2018-03-31T22:51:36.428Z,1.70
2018-03-31T22:54:03.532Z,1.70
2018-03-31T22:56:31.386Z,1.70
2018-03-31T22:58:58.485Z,1.70
2018-03-31T23:01:25.578Z,1.60
2018-03-31T23:03:52.690Z,1.60
2018-03-31T23:06:19.781Z,1.60
2018-03-31T23:08:46.883Z,1.60
2018-03-31T23:11:13.985Z,1.60
2018-03-31T23:13:41.088Z,1.50
2018-03-31T23:16:08.951Z,1.50
2018-03-31T23:18:36.823Z,1.40
2018-03-31T23:21:04.683Z,1.40
2018-03-31T23:23:32.615Z,1.40
2018-03-31T23:25:59.716Z,1.40
2018-03-31T23:28:26.816Z,1.40
2018-03-31T23:30:53.915Z,1.40
2018-03-31T23:33:21.780Z,1.40
2018-03-31T23:35:48.895Z,1.40
2018-03-31T23:38:15.986Z,1.40
2018-03-31T23:40:43.089Z,1.40
2018-03-31T23:43:10.182Z,1.30
2018-03-31T23:45:37.281Z,1.30
2018-03-31T23:48:04.392Z,1.30
2018-03-31T23:50:32.284Z,1.30
2018-03-31T23:52:59.388Z,1.30
2018-03-31T23:55:26.493Z,1.30
2018-03-31T23:57:54.359Z,1.30
